Time;durP1;ratioP1;P1;durP2;ratioP2;P2;SDS_P1;SDS_P2;PMS_P1;PMS_P2;Temp;Humidity;BMP_temperature;BMP_pressure;BME280_temperature;BME280_humidity;BME280_pressure;Samples;Min_cycle;Max_cycle;Signal;HPM_P1;HPM_P2
2024/04/17 00:05:12;;;;;;;0.00;0.00;;;;;;;;;;33390822;26;20766;-75
2024/04/17 00:20:18;;;;;;;0.00;0.00;;;;;;;;;;33389396;26;20268;-75
2024/04/17 00:35:32;;;;;;;0.00;0.00;;;;;;;;;;33448306;26;20625;-75
2024/04/17 00:50:38;;;;;;;0.00;0.00;;;;;;;;;;33406064;26;20630;-77
2024/04/17 01:05:46;;;;;;;0.10;0.10;;;;;;;;;;33406521;26;20967;-76
2024/04/17 01:20:52;;;;;;;0.10;0.10;;;;;;;;;;33449563;26;20268;-76
2024/04/17 01:36:05;;;;;;;0.03;0.03;;;;;;;;;;33429634;26;20269;-76
2024/04/17 01:51:11;;;;;;;0.00;0.00;;;;;;;;;;33436607;26;20265;-76
2024/04/17 02:06:18;;;;;;;0.00;0.00;;;;;;;;;;33395644;26;20302;-76
2024/04/17 02:21:24;;;;;;;0.00;0.00;;;;;;;;;;33407312;26;20732;-76
2024/04/17 02:36:37;;;;;;;0.10;0.10;;;;;;;;;;33593724;26;20268;-76
2024/04/17 02:51:43;;;;;;;0.00;0.00;;;;;;;;;;33634093;26;20274;-76
2024/04/17 03:06:49;;;;;;;0.20;0.20;;;;;;;;;;33595825;26;20600;-76
2024/04/17 03:21:55;;;;;;;0.00;0.00;;;;;;;;;;33630267;26;20279;-77
2024/04/17 03:37:08;;;;;;;0.00;0.00;;;;;;;;;;33266610;26;20270;-76
2024/04/17 03:52:14;;;;;;;0.10;0.10;;;;;;;;;;33274147;26;20262;-76
2024/04/17 04:07:20;;;;;;;0.10;0.10;;;;;;;;;;33262633;26;20343;-76
2024/04/17 04:22:26;;;;;;;0.00;0.00;;;;;;;;;;33263591;26;20260;-76
2024/04/17 04:37:39;;;;;;;0.00;0.00;;;;;;;;;;33392128;26;20485;-76
2024/04/17 04:52:46;;;;;;;0.10;0.10;;;;;;;;;;33410516;26;20265;-76
2024/04/17 05:07:52;;;;;;;0.10;0.10;;;;;;;;;;33407722;26;20253;-75
2024/04/17 05:22:58;;;;;;;0.00;0.00;;;;;;;;;;33435547;26;20369;-76
2024/04/17 05:38:11;;;;;;;0.10;0.10;;;;;;;;;;33371029;26;20269;-75
2024/04/17 05:53:17;;;;;;;0.00;0.00;;;;;;;;;;33402691;26;20261;-76
2024/04/17 06:08:23;;;;;;;0.10;0.10;;;;;;;;;;33372649;26;20261;-75
2024/04/17 06:23:30;;;;;;;0.00;0.00;;;;;;;;;;33397512;26;20272;-75
2024/04/17 06:38:43;;;;;;;0.00;0.00;;;;;;;;;;33405353;26;20291;-75
2024/04/17 06:53:49;;;;;;;0.00;0.00;;;;;;;;;;33411403;26;20268;-75
2024/04/17 07:08:55;;;;;;;0.00;0.00;;;;;;;;;;33406522;26;20272;-75
2024/04/17 07:24:02;;;;;;;0.00;0.00;;;;;;;;;;33408959;26;20268;-77
2024/04/17 07:39:14;;;;;;;0.00;0.00;;;;;;;;;;33614355;26;20268;-75
2024/04/17 07:54:21;;;;;;;0.00;0.00;;;;;;;;;;33629623;26;20266;-77
2024/04/17 08:09:27;;;;;;;0.00;0.00;;;;;;;;;;33627769;26;20267;-74
2024/04/17 08:24:33;;;;;;;0.00;0.00;;;;;;;;;;33595798;26;20365;-77
2024/04/17 08:39:46;;;;;;;0.00;0.00;;;;;;;;;;33297232;26;20300;-75
2024/04/17 08:54:53;;;;;;;0.00;0.00;;;;;;;;;;33271308;26;20365;-75
2024/04/17 09:09:59;;;;;;;0.00;0.00;;;;;;;;;;33360407;26;20374;-77
2024/04/17 09:25:14;;;;;;;0.00;0.00;;;;;;;;;;33400738;26;20345;-75
2024/04/17 09:40:26;;;;;;;0.00;0.00;;;;;;;;;;33381400;26;20311;-75
2024/04/17 09:55:33;;;;;;;0.00;0.00;;;;;;;;;;33397428;26;20716;-75
2024/04/17 10:10:39;;;;;;;0.00;0.00;;;;;;;;;;33395346;26;20261;-75
2024/04/17 10:25:54;;;;;;;0.00;0.00;;;;;;;;;;33452672;26;20268;-75
2024/04/17 10:41:07;;;;;;;0.00;0.00;;;;;;;;;;33641908;26;20777;-75
2024/04/17 10:56:13;;;;;;;0.00;0.00;;;;;;;;;;33644194;26;20268;-74
2024/04/17 11:11:21;;;;;;;0.00;0.00;;;;;;;;;;33638398;26;20354;-75
2024/04/17 11:26:27;;;;;;;0.00;0.00;;;;;;;;;;33490711;26;20753;-75
2024/04/17 11:41:40;;;;;;;0.00;0.00;;;;;;;;;;33366818;26;20584;-75
2024/04/17 11:56:46;;;;;;;0.00;0.00;;;;;;;;;;33400297;26;20273;-75
2024/04/17 12:11:53;;;;;;;0.00;0.00;;;;;;;;;;33390820;26;20272;-75
2024/04/17 12:27:03;;;;;;;0.00;0.00;;;;;;;;;;33378636;26;21050;-75
2024/04/17 12:42:15;;;;;;;0.00;0.00;;;;;;;;;;33360787;26;20780;-76
2024/04/17 12:57:21;;;;;;;0.00;0.00;;;;;;;;;;33353542;26;20256;-76
2024/04/17 13:12:27;;;;;;;0.00;0.00;;;;;;;;;;33363455;26;20353;-75
2024/04/17 13:27:34;;;;;;;0.00;0.00;;;;;;;;;;33403417;26;20276;-75
2024/04/17 13:42:48;;;;;;;0.00;0.00;;;;;;;;;;33576181;26;20357;-76
2024/04/17 13:57:54;;;;;;;0.00;0.00;;;;;;;;;;33591685;26;20271;-76
2024/04/17 14:13:01;;;;;;;0.00;0.00;;;;;;;;;;33568828;26;20267;-76
2024/04/17 14:28:07;;;;;;;0.00;0.00;;;;;;;;;;33576092;26;20757;-76
2024/04/17 14:43:20;;;;;;;0.00;0.00;;;;;;;;;;33591008;26;20252;-76
2024/04/17 14:58:26;;;;;;;0.00;0.00;;;;;;;;;;33603722;26;20747;-76
2024/04/17 15:13:34;;;;;;;0.00;0.00;;;;;;;;;;33595859;26;20348;-76
2024/04/17 15:28:40;;;;;;;0.00;0.00;;;;;;;;;;33525197;26;20311;-76
2024/04/17 15:43:53;;;;;;;0.00;0.00;;;;;;;;;;33277277;26;20297;-75
2024/04/17 15:59:00;;;;;;;0.00;0.00;;;;;;;;;;33299705;26;20296;-76
2024/04/17 16:14:06;;;;;;;0.00;0.00;;;;;;;;;;33380900;26;20343;-76
2024/04/17 16:29:12;;;;;;;0.00;0.00;;;;;;;;;;33274487;26;20262;-76
2024/04/17 16:44:26;;;;;;;0.00;0.00;;;;;;;;;;33223428;26;20716;-76
2024/04/17 16:59:32;;;;;;;0.00;0.00;;;;;;;;;;33313075;26;20597;-76
2024/04/17 17:14:38;;;;;;;0.00;0.00;;;;;;;;;;33340684;26;20268;-75
2024/04/17 17:29:44;;;;;;;0.00;0.00;;;;;;;;;;33329424;26;20272;-75
2024/04/17 17:44:58;;;;;;;0.00;0.00;;;;;;;;;;33348717;26;20431;-75
2024/04/17 18:00:08;;;;;;;0.00;0.00;;;;;;;;;;33353554;26;20723;-75
2024/04/17 18:15:18;;;;;;;0.00;0.00;;;;;;;;;;33364120;26;20296;-76
2024/04/17 18:30:24;;;;;;;0.10;0.10;;;;;;;;;;33417525;26;20350;-78
2024/04/17 18:45:37;;;;;;;0.00;0.00;;;;;;;;;;33419231;26;20261;-77
2024/04/17 19:00:43;;;;;;;0.00;0.00;;;;;;;;;;33422195;26;20288;-77
2024/04/17 19:15:50;;;;;;;0.00;0.00;;;;;;;;;;33419608;26;20263;-76
2024/04/17 19:31:01;;;;;;;0.00;0.00;;;;;;;;;;33397599;26;20261;-76
2024/04/17 19:46:15;;;;;;;0.00;0.00;;;;;;;;;;33428681;26;20264;-77
2024/04/17 20:01:21;;;;;;;0.00;0.00;;;;;;;;;;33401736;26;20257;-77
2024/04/17 20:16:28;;;;;;;0.00;0.00;;;;;;;;;;33427211;26;20302;-76
2024/04/17 20:31:34;;;;;;;0.00;0.00;;;;;;;;;;33411240;26;20562;-76
2024/04/17 20:46:49;;;;;;;0.00;0.00;;;;;;;;;;33396262;26;20296;-76
2024/04/17 21:01:56;;;;;;;0.00;0.00;;;;;;;;;;33442913;26;20261;-76
2024/04/17 21:17:03;;;;;;;0.00;0.00;;;;;;;;;;33397844;26;20388;-76
2024/04/17 21:32:09;;;;;;;0.00;0.00;;;;;;;;;;33424450;26;20323;-76
2024/04/17 21:47:41;;;;;;;0.00;0.00;;;;;;;;;;33459371;26;20277;-76
2024/04/17 22:03:16;;;;;;;0.00;0.00;;;;;;;;;;33450016;26;20257;-77
2024/04/17 22:18:22;;;;;;;0.00;0.00;;;;;;;;;;33464408;26;20359;-78
2024/04/17 22:33:29;;;;;;;0.00;0.00;;;;;;;;;;33436042;26;20268;-77
2024/04/17 22:48:35;;;;;;;0.10;0.10;;;;;;;;;;33433676;26;20310;-77
2024/04/17 23:04:08;;;;;;;0.00;0.00;;;;;;;;;;33409966;26;20606;-75
2024/04/17 23:19:15;;;;;;;0.00;0.00;;;;;;;;;;33289196;26;20645;-75
2024/04/17 23:34:21;;;;;;;0.00;0.00;;;;;;;;;;33381258;26;20750;-75
2024/04/17 23:49:27;;;;;;;0.00;0.00;;;;;;;;;;33380045;26;20303;-75
